This is the latest recevied weather packets stored in our database for station/object SM6LNJ-13. If no packets are shown the sender has not sent any weather packets the latest 10 day(s).
| Time | Temp. | Humidity | Pressure | Rain* | Wind** | Luminosity | Snow |
|---|---|---|---|---|---|---|---|
| 1777908113 | 15° C | 62% | 1430.9 hPa | 0 mm | - | - | - |
| 1777907632 | 14.44° C | 61% | 1430.2 hPa | 0 mm | - | - | - |
| 1777907272 | 14.44° C | 61% | 1430 hPa | 0 mm | - | - | - |
| 1777907146 | 15° C | 60% | 1430.8 hPa | 0 mm | - | - | - |
| 1777906672 | 15.56° C | 59% | 1431.9 hPa | 0 mm | - | - | - |
| 1777889985 | 13.89° C | 70% | 1428.1 hPa | 0 mm | - | - | - |
| 1777867426 | 8.89° C | 92% | 1416.1 hPa | 0 mm | - | - | - |
| 1777867306 | 8.89° C | 92% | 1416.1 hPa | 0 mm | - | - | - |
| 1777867066 | 8.33° C | 92% | 1415.8 hPa | 0 mm | - | - | - |
| 1777866826 | 8.33° C | 92% | 1415.8 hPa | 0 mm | - | - | - |
| 1777866712 | 8.33° C | 93% | 1415.9 hPa | 0 mm | - | - | - |
| 1777866466 | 8.89° C | 93% | 1416 hPa | 0 mm | - | - | - |
| 1777838506 | 9.44° C | 89% | 1417.3 hPa | 0 mm | - | - | - |
| 1777821346 | 11.67° C | 85% | 1423.3 hPa | 0 mm | - | - | - |
| 1777788825 | 10.56° C | 93% | 1419.9 hPa | 0 mm | - | - | - |
| 1777757385 | 11.11° C | 84% | 1421.8 hPa | 0 mm | - | - | - |
| 1777752706 | 11.11° C | 80% | 1422.3 hPa | 0 mm | - | - | - |
| 1777748966 | 12.22° C | 73% | - | - | - | - | - |
| 1777744666 | 14.44° C | 56% | 1429.6 hPa | 0 mm | - | - | - |
| 1777744186 | 15° C | 55% | 1430.5 hPa | 0 mm | - | - | - |
| 1777744066 | 15° C | 54% | 1430.6 hPa | 0 mm | - | - | - |
| 1777743946 | 15° C | 54% | 1430.8 hPa | 0 mm | - | - | - |
| 1777743826 | 15° C | 53% | 1431 hPa | 0 mm | - | - | - |
| 1777742866 | 15.56° C | 51% | 1432 hPa | 0 mm | - | - | - |
| 1777741073 | 17.22° C | 46% | 1436.6 hPa | 0 mm | - | - | - |
* Rain latest hour (hover to see other rain measurements)
** Current wind speed in m/s (hover to see current wind gust speed)